Poynette, Wisconsin
Current Conditions -  °F | °C
As of 11:53 PM on Tuesday 25 Nov 2014 (Local Time) from KMSN Reporting Station
Haze Haze  
Wind Chill: 14°   Ceiling: Unl
Heat Index: 14°   Visibility: 6mi
Dew Point:   Wind: 0mph
Humidity: 80%   Direction: NA
Pressure: 30.15"   Gusts: NA
Location:  43.39°N, 89.4°W
Report Text: KMSN 260553Z AUTO 00000KT 6SM HZ CLR M10/M13 A3015 RMK AO2 SLP226 I1001 I6001 T11001128 11056 21111 410501111 51011
Loading
Personal Weather Stations






























Interactive Weather Map New forecast layout! Learn more

10-Day Weather Forecast

Advertisements
Track Severe Weather on mobile